Time;durP1;ratioP1;P1;durP2;ratioP2;P2;SDS_P1;SDS_P2;PMS_P1;PMS_P2;Temp;Humidity;BMP_temperature;BMP_pressure;BME280_temperature;BME280_humidity;BME280_pressure;Samples;Min_cycle;Max_cycle;Signal;HPM_P1;HPM_P2
2023/10/23 00:01:47;89715.00;0.30;155.82;0.00;0.00;0.62;;;;;16.40;1.00;;;;;;2272086;61;2010;-85
2023/10/23 00:04:14;207929.00;0.69;359.57;0.00;0.00;0.62;;;;;16.30;1.00;;;;;;2272177;61;1251;-86
2023/10/23 00:06:41;31653.00;0.11;55.44;0.00;0.00;0.62;;;;;16.10;1.00;;;;;;2272166;61;1083;-87
2023/10/23 00:09:10;260217.00;0.87;449.52;0.00;0.00;0.62;;;;;16.20;1.00;;;;;;2272077;61;1551;-85
2023/10/23 00:11:37;86254.00;0.29;149.84;0.00;0.00;0.62;;;;;16.30;1.00;;;;;;2272023;61;1746;-87
2023/10/23 00:14:04;232572.00;0.78;401.97;0.00;0.00;0.62;;;;;16.50;1.00;;;;;;2272056;61;1536;-86
2023/10/23 00:16:31;0.00;0.00;0.62;0.00;0.00;0.62;;;;;16.50;1.00;;;;;;2272123;61;1253;-88
2023/10/23 00:18:58;161279.00;0.54;279.24;0.00;0.00;0.62;;;;;16.60;1.00;;;;;;2272074;61;1141;-87
2023/10/23 00:21:25;155651.00;0.52;269.55;0.00;0.00;0.62;;;;;16.70;1.00;;;;;;2272119;61;1916;-88
2023/10/23 00:23:54;208285.00;0.69;360.18;0.00;0.00;0.62;;;;;16.40;1.00;;;;;;2272030;61;1624;-88
2023/10/23 00:26:22;264073.00;0.88;456.15;0.00;0.00;0.62;;;;;15.40;1.00;;;;;;2272057;61;923;-85
2023/10/23 00:28:49;232773.00;0.78;402.32;0.00;0.00;0.62;;;;;14.50;1.00;;;;;;2272014;61;949;-86
2023/10/23 00:31:16;44138.00;0.15;77.05;0.00;0.00;0.62;;;;;13.60;1.00;;;;;;2271998;61;1108;-86
2023/10/23 00:33:43;88140.00;0.29;153.10;0.00;0.00;0.62;;;;;13.40;1.00;;;;;;2272060;61;1276;-85
2023/10/23 00:36:10;311.00;0.00;1.16;0.00;0.00;0.62;;;;;13.00;1.00;;;;;;2272059;61;1071;-87
2023/10/23 00:38:37;61849.00;0.21;107.67;0.00;0.00;0.62;;;;;12.50;1.00;;;;;;2272079;61;1278;-86
2023/10/23 00:41:03;26432.00;0.09;46.41;0.00;0.00;0.62;;;;;12.10;1.00;;;;;;2271985;61;1919;-85
2023/10/23 00:43:34;179334.00;0.60;310.34;0.00;0.00;0.62;;;;;12.10;1.00;;;;;;2272060;61;1308;-86
2023/10/23 00:46:11;178659.00;0.60;309.18;0.00;0.00;0.62;;;;;12.10;1.00;;;;;;2272003;61;1580;-84
2023/10/23 00:48:38;0.00;0.00;0.62;0.00;0.00;0.62;;;;;11.90;1.00;;;;;;2271976;61;1044;-85
2023/10/23 00:51:07;198252.00;0.66;342.91;0.00;0.00;0.62;;;;;11.80;1.00;;;;;;2272031;61;1062;-85
2023/10/23 00:53:37;376379.00;1.25;649.20;37391.00;0.12;65.37;;;;;11.80;1.00;;;;;;2271999;61;1380;-83
2023/10/23 00:56:07;63399.00;0.21;110.35;0.00;0.00;0.62;;;;;11.70;1.00;;;;;;2271972;61;1120;-85
2023/10/23 00:58:39;17097.00;0.06;30.24;0.00;0.00;0.62;;;;;11.70;1.00;;;;;;2272012;61;1088;-84
2023/10/23 01:01:07;292482.00;0.97;505.00;64307.00;0.21;111.92;;;;;11.60;1.00;;;;;;2272002;61;1984;-86
2023/10/23 01:03:34;47413.00;0.16;82.71;0.00;0.00;0.62;;;;;11.50;1.00;;;;;;2271880;61;1302;-84
2023/10/23 01:06:01;18478.00;0.06;32.63;0.00;0.00;0.62;;;;;11.60;1.00;;;;;;2271949;61;1026;-85
2023/10/23 01:08:28;102305.00;0.34;177.55;0.00;0.00;0.62;;;;;11.70;1.00;;;;;;2271906;61;1111;-86
2023/10/23 01:10:56;97114.00;0.32;168.59;0.00;0.00;0.62;;;;;11.60;1.00;;;;;;2271923;61;1109;-84
2023/10/23 01:13:23;72706.00;0.24;126.44;0.00;0.00;0.62;;;;;11.30;1.00;;;;;;2271955;61;1321;-85
2023/10/23 01:15:51;76463.00;0.25;132.93;0.00;0.00;0.62;;;;;11.30;1.00;;;;;;2271918;61;1072;-85
2023/10/23 01:18:18;40612.00;0.14;70.95;0.00;0.00;0.62;;;;;11.40;1.00;;;;;;2271597;61;1094;-83
2023/10/23 01:20:45;193540.00;0.65;334.80;0.00;0.00;0.62;;;;;11.20;1.00;;;;;;2271653;61;1997;-86
2023/10/23 01:23:13;148044.00;0.49;256.44;0.00;0.00;0.62;;;;;11.10;1.00;;;;;;2271863;61;1369;-85
2023/10/23 01:25:41;0.00;0.00;0.62;0.00;0.00;0.62;;;;;11.30;1.00;;;;;;2271855;61;1723;-85
2023/10/23 01:28:08;28405.00;0.09;49.82;0.00;0.00;0.62;;;;;11.10;1.00;;;;;;2271894;61;984;-86
2023/10/23 01:30:35;0.00;0.00;0.62;0.00;0.00;0.62;;;;;11.00;1.00;;;;;;2271880;61;1022;-86
2023/10/23 01:33:02;112423.00;0.37;195.01;0.00;0.00;0.62;;;;;10.80;1.00;;;;;;2271650;61;1366;-85
2023/10/23 01:35:29;141707.00;0.47;245.51;0.00;0.00;0.62;;;;;10.80;1.00;;;;;;2271823;61;1597;-86
2023/10/23 01:37:56;20252.00;0.07;35.71;0.00;0.00;0.62;;;;;10.80;1.00;;;;;;2271884;61;992;-84
2023/10/23 01:40:23;147549.00;0.49;255.58;0.00;0.00;0.62;;;;;10.80;1.00;;;;;;2271878;61;2025;-86
2023/10/23 01:42:51;142871.00;0.48;247.52;0.00;0.00;0.62;;;;;11.00;1.00;;;;;;2271762;61;1551;-88
2023/10/23 01:45:19;74594.00;0.25;129.70;0.00;0.00;0.62;;;;;10.90;1.00;;;;;;2271868;61;1099;-86
2023/10/23 01:47:46;82335.00;0.27;143.07;0.00;0.00;0.62;;;;;10.80;1.00;;;;;;2271836;61;968;-85
2023/10/23 01:50:14;34247.00;0.11;59.93;0.00;0.00;0.62;;;;;10.70;1.00;;;;;;2271799;61;1768;-86
2023/10/23 01:52:41;181500.00;0.61;314.07;0.00;0.00;0.62;;;;;10.80;1.00;;;;;;2271679;61;1385;-86
2023/10/23 01:55:09;185813.00;0.62;321.50;0.00;0.00;0.62;;;;;10.90;1.00;;;;;;2271800;61;1442;-85
2023/10/23 01:57:35;56737.00;0.19;98.84;0.00;0.00;0.62;;;;;10.90;1.00;;;;;;2271787;61;946;-86
2023/10/23 02:00:05;82594.00;0.28;143.52;0.00;0.00;0.62;;;;;10.80;1.00;;;;;;2271849;61;905;-86
2023/10/23 02:02:33;109103.00;0.36;189.28;0.00;0.00;0.62;;;;;10.70;1.00;;;;;;2271710;61;2011;-86
2023/10/23 02:05:04;109437.00;0.36;189.86;0.00;0.00;0.62;;;;;10.50;1.00;;;;;;2271807;61;1131;-85
2023/10/23 02:07:31;76783.00;0.26;133.48;0.00;0.00;0.62;;;;;10.70;1.00;;;;;;2271853;61;1038;-85
2023/10/23 02:09:57;202937.00;0.68;350.98;0.00;0.00;0.62;;;;;10.50;1.00;;;;;;2271827;61;1104;-86
2023/10/23 02:12:25;334637.00;1.12;577.46;25275.00;0.08;44.40;;;;;10.50;1.00;;;;;;2271757;61;1263;-87
2023/10/23 02:14:53;100058.00;0.33;173.67;0.00;0.00;0.62;;;;;10.40;1.00;;;;;;2271783;61;1056;-86
2023/10/23 02:17:21;23210.00;0.08;40.83;0.00;0.00;0.62;;;;;10.30;1.00;;;;;;2271743;61;932;-86
2023/10/23 02:19:47;178062.00;0.59;308.15;0.00;0.00;0.62;;;;;10.30;1.00;;;;;;2271692;61;1038;-85
2023/10/23 02:22:14;226911.00;0.76;392.23;0.00;0.00;0.62;;;;;10.30;1.00;;;;;;2271341;61;2027;-84
2023/10/23 02:24:41;27365.00;0.09;48.02;0.00;0.00;0.62;;;;;10.30;1.00;;;;;;2271736;61;1118;-86
2023/10/23 02:27:08;135601.00;0.45;234.99;0.00;0.00;0.62;;;;;10.30;1.00;;;;;;2271682;61;1526;-85
2023/10/23 02:29:35;87275.00;0.29;151.60;0.00;0.00;0.62;;;;;10.30;1.00;;;;;;2271722;61;1055;-85
2023/10/23 02:32:01;87642.00;0.29;152.24;0.00;0.00;0.62;;;;;10.40;1.00;;;;;;2271687;61;1329;-86
2023/10/23 02:34:30;94044.00;0.31;163.29;0.00;0.00;0.62;;;;;10.20;1.00;;;;;;2271643;61;1086;-87
2023/10/23 02:37:00;229988.00;0.77;397.53;30311.00;0.10;53.12;;;;;10.20;1.00;;;;;;2271766;61;945;-84
2023/10/23 02:39:26;221797.00;0.74;383.44;0.00;0.00;0.62;;;;;10.10;1.00;;;;;;2271570;61;1529;-84
2023/10/23 02:41:53;102756.00;0.34;178.33;0.00;0.00;0.62;;;;;10.10;1.00;;;;;;2271716;61;2015;-86
2023/10/23 02:44:20;253664.00;0.85;438.25;48912.00;0.16;85.30;;;;;10.10;1.00;;;;;;2271743;61;1030;-86
2023/10/23 02:46:47;208324.00;0.69;360.25;0.00;0.00;0.62;;;;;10.10;1.00;;;;;;2271668;61;1593;-86
2023/10/23 02:49:14;114352.00;0.38;198.34;0.00;0.00;0.62;;;;;10.30;1.00;;;;;;2271736;61;986;-85
2023/10/23 02:51:43;79580.00;0.27;138.31;0.00;0.00;0.62;;;;;10.20;1.00;;;;;;2271615;61;1428;-86
2023/10/23 02:54:13;444.00;0.00;1.39;0.00;0.00;0.62;;;;;10.00;1.00;;;;;;2271692;61;1004;-87
2023/10/23 02:56:40;72898.00;0.24;126.77;0.00;0.00;0.62;;;;;9.80;1.00;;;;;;2271680;61;1026;-87
2023/10/23 02:59:08;145200.00;0.48;251.53;0.00;0.00;0.62;;;;;9.80;1.00;;;;;;2271708;61;1004;-86
2023/10/23 03:01:35;121479.00;0.40;210.63;0.00;0.00;0.62;;;;;9.90;1.00;;;;;;2271667;61;1993;-87
2023/10/23 03:04:02;78385.00;0.26;136.25;0.00;0.00;0.62;;;;;10.00;1.00;;;;;;2271918;61;1121;-87
2023/10/23 03:06:29;134721.00;0.45;233.47;0.00;0.00;0.62;;;;;10.20;1.00;;;;;;2272536;61;993;-87
2023/10/23 03:08:57;158209.00;0.53;273.95;0.00;0.00;0.62;;;;;10.20;1.00;;;;;;2272640;61;1050;-86
2023/10/23 03:11:24;74603.00;0.25;129.71;0.00;0.00;0.62;;;;;10.20;1.00;;;;;;2272661;61;1086;-85
2023/10/23 03:13:53;165137.00;0.55;285.89;0.00;0.00;0.62;;;;;10.20;1.00;;;;;;2272623;61;985;-85
2023/10/23 03:16:24;91495.00;0.30;158.89;0.00;0.00;0.62;;;;;10.30;1.00;;;;;;2272563;61;913;-86
2023/10/23 03:18:51;11854.00;0.04;21.16;0.00;0.00;0.62;;;;;10.30;1.00;;;;;;2272640;61;1241;-86
2023/10/23 03:21:18;163704.00;0.55;283.42;0.00;0.00;0.62;;;;;10.10;1.00;;;;;;2272542;61;1915;-86
2023/10/23 03:23:45;111524.00;0.37;193.46;0.00;0.00;0.62;;;;;9.90;1.00;;;;;;2272541;61;1518;-85
2023/10/23 03:26:14;56896.00;0.19;99.11;0.00;0.00;0.62;;;;;9.90;1.00;;;;;;2272645;61;1118;-86
2023/10/23 03:28:41;9962.00;0.03;17.88;0.00;0.00;0.62;;;;;9.90;1.00;;;;;;2272461;61;2206;-86
2023/10/23 03:31:08;190904.00;0.64;330.26;0.00;0.00;0.62;;;;;9.80;1.00;;;;;;2272596;61;1471;-85
2023/10/23 03:33:35;236992.00;0.79;409.58;32044.00;0.11;56.12;;;;;10.00;1.00;;;;;;2272438;61;1463;-86
2023/10/23 03:36:01;40953.00;0.14;71.54;0.00;0.00;0.62;;;;;9.90;1.00;;;;;;2272555;61;1557;-86
2023/10/23 03:38:28;138620.00;0.46;240.19;0.00;0.00;0.62;;;;;9.80;1.00;;;;;;2272406;61;1032;-87
2023/10/23 03:40:57;1040.00;0.00;2.42;0.00;0.00;0.62;;;;;10.00;1.00;;;;;;2272483;61;1998;-86
2023/10/23 03:43:26;354594.00;1.18;611.76;37314.00;0.12;65.24;;;;;10.00;1.00;;;;;;2272485;61;1435;-88
2023/10/23 03:45:53;163238.00;0.54;282.62;0.00;0.00;0.62;;;;;9.70;1.00;;;;;;2272521;61;1196;-87
2023/10/23 03:48:20;195966.00;0.65;338.98;0.00;0.00;0.62;;;;;9.40;1.00;;;;;;2272515;61;1159;-87
2023/10/23 03:50:47;52136.00;0.17;90.88;0.00;0.00;0.62;;;;;9.30;1.00;;;;;;2272529;61;1033;-86
2023/10/23 03:53:14;40504.00;0.14;70.76;0.00;0.00;0.62;;;;;9.20;1.00;;;;;;2272450;61;1337;-87
2023/10/23 03:55:43;50986.00;0.17;88.89;0.00;0.00;0.62;;;;;9.30;1.00;;;;;;2272488;61;2021;-88
2023/10/23 03:58:10;32008.00;0.11;56.06;0.00;0.00;0.62;;;;;9.30;1.00;;;;;;2272486;61;1146;-85
2023/10/23 04:00:39;213391.00;0.71;368.97;56526.00;0.19;98.47;;;;;9.10;1.00;;;;;;2272516;61;913;-86
2023/10/23 04:03:06;264934.00;0.88;457.63;27275.00;0.09;47.87;;;;;9.20;1.00;;;;;;2272389;61;2009;-85
2023/10/23 04:05:33;111016.00;0.37;192.58;0.00;0.00;0.62;;;;;9.20;1.00;;;;;;2272463;61;1020;-85
2023/10/23 04:08:00;52839.00;0.18;92.10;0.00;0.00;0.62;;;;;9.30;1.00;;;;;;2272491;61;1066;-85
2023/10/23 04:10:27;9089.00;0.03;16.37;0.00;0.00;0.62;;;;;9.10;1.00;;;;;;2272445;61;1154;-85
2023/10/23 04:12:57;164771.00;0.55;285.26;0.00;0.00;0.62;;;;;9.10;1.00;;;;;;2272374;61;1314;-87
2023/10/23 04:15:24;98542.00;0.33;171.06;30941.00;0.10;54.21;;;;;9.20;1.00;;;;;;2272337;61;1015;-85
2023/10/23 04:17:53;69642.00;0.23;121.14;0.00;0.00;0.62;;;;;9.00;1.00;;;;;;2272410;61;1585;-88
2023/10/23 04:20:20;329633.00;1.10;568.86;0.00;0.00;0.62;;;;;9.00;1.00;;;;;;2272335;61;1632;-86
2023/10/23 04:22:49;147833.00;0.49;256.07;0.00;0.00;0.62;;;;;9.00;1.00;;;;;;2272345;61;1942;-88
2023/10/23 04:25:19;59170.00;0.20;103.04;0.00;0.00;0.62;;;;;9.00;1.00;;;;;;2272340;61;1331;-88
2023/10/23 04:27:46;6586.00;0.02;12.03;0.00;0.00;0.62;;;;;9.10;1.00;;;;;;2272346;61;1630;-86
2023/10/23 04:30:18;151229.00;0.50;261.93;0.00;0.00;0.62;;;;;9.30;1.00;;;;;;2272383;61;1095;-87
2023/10/23 04:32:45;149609.00;0.50;259.13;0.00;0.00;0.62;;;;;8.90;1.00;;;;;;2272191;61;1542;-86
2023/10/23 04:35:15;209884.00;0.70;362.94;0.00;0.00;0.62;;;;;9.00;1.00;;;;;;2272322;61;1574;-85
2023/10/23 04:37:44;75566.00;0.25;131.38;0.00;0.00;0.62;;;;;9.10;1.00;;;;;;2272357;61;1056;-87
2023/10/23 04:40:14;115776.00;0.39;200.80;0.00;0.00;0.62;;;;;9.30;1.00;;;;;;2272343;61;975;-86
2023/10/23 04:42:41;306149.00;1.02;528.49;0.00;0.00;0.62;;;;;9.10;1.00;;;;;;2272264;61;1996;-86
2023/10/23 04:45:10;101426.00;0.34;176.03;0.00;0.00;0.62;;;;;9.00;1.00;;;;;;2272305;61;1119;-85
2023/10/23 04:47:38;151253.00;0.50;261.97;0.00;0.00;0.62;;;;;9.10;1.00;;;;;;2272244;61;1523;-86
2023/10/23 04:50:05;181111.00;0.60;313.40;65978.00;0.22;114.81;;;;;9.00;1.00;;;;;;2272307;61;967;-85
2023/10/23 04:52:34;294229.00;0.98;508.00;9702.00;0.03;17.43;;;;;9.00;1.00;;;;;;2272262;61;1411;-85
2023/10/23 04:55:03;150588.00;0.50;260.82;0.00;0.00;0.62;;;;;9.10;1.00;;;;;;2272312;61;1008;-86
2023/10/23 04:57:33;400541.00;1.34;690.74;40030.00;0.13;69.94;;;;;9.20;1.00;;;;;;2272247;61;1098;-87
2023/10/23 05:00:00;302394.00;1.01;522.04;33258.00;0.11;58.22;;;;;8.90;1.00;;;;;;2272189;61;2071;-87
2023/10/23 05:02:32;248619.00;0.83;429.58;0.00;0.00;0.62;;;;;8.90;1.00;;;;;;2272181;61;2002;-86
2023/10/23 05:05:05;118840.00;0.40;206.08;0.00;0.00;0.62;;;;;8.90;1.00;;;;;;2272202;61;1506;-85
2023/10/23 05:07:33;234789.00;0.78;405.79;0.00;0.00;0.62;;;;;8.80;1.00;;;;;;2272240;61;1513;-85
2023/10/23 05:10:04;182423.00;0.61;315.66;0.00;0.00;0.62;;;;;8.70;1.00;;;;;;2272194;61;1626;-87
2023/10/23 05:12:36;199303.00;0.66;344.72;10000.00;0.03;17.95;;;;;8.70;1.00;;;;;;2272186;61;1582;-86
2023/10/23 05:15:08;170974.00;0.57;295.94;0.00;0.00;0.62;;;;;8.70;1.00;;;;;;2272197;61;1605;-86
2023/10/23 05:17:35;355287.00;1.18;612.95;0.00;0.00;0.62;;;;;8.60;1.00;;;;;;2272202;61;1623;-86
2023/10/23 05:20:04;496267.00;1.65;855.40;45448.00;0.15;79.31;;;;;8.50;1.00;;;;;;2272251;61;889;-87
2023/10/23 05:22:33;345661.00;1.15;596.40;14630.00;0.05;25.97;;;;;8.40;1.00;;;;;;2272124;61;1915;-86
2023/10/23 05:25:03;688834.00;2.30;1187.88;29595.00;0.10;51.88;;;;;8.30;1.00;;;;;;2272135;61;1038;-85
2023/10/23 05:27:30;656410.00;2.19;1131.73;33982.00;0.11;59.47;;;;;8.30;1.00;;;;;;2271780;61;2165;-87
2023/10/23 05:29:57;119191.00;0.40;206.69;0.00;0.00;0.62;;;;;8.40;1.00;;;;;;2273973;61;1581;-88
2023/10/23 05:32:24;1324693.00;4.42;2317.37;105055.00;0.35;182.30;;;;;8.30;1.00;;;;;;2276122;61;1329;-86
2023/10/23 05:34:53;1594891.00;5.32;2822.98;89910.00;0.30;156.15;;;;;8.30;1.00;;;;;;2276221;61;1060;-86
2023/10/23 05:37:20;1348495.00;4.49;2361.14;42878.00;0.14;74.87;;;;;8.40;1.00;;;;;;2276131;61;1022;-87
2023/10/23 05:39:54;1460424.00;4.87;2568.87;194427.00;0.65;336.33;;;;;8.40;1.00;;;;;;2276154;61;2207;-86
2023/10/23 05:42:21;948192.00;3.16;1640.92;19551.00;0.07;34.49;;;;;8.30;1.00;;;;;;2276081;61;1917;-86
2023/10/23 05:44:57;1671675.00;5.57;2970.52;175585.00;0.59;303.89;;;;;8.50;1.00;;;;;;2276195;61;993;-86
2023/10/23 05:47:28;1112790.00;3.71;1933.31;98598.00;0.33;171.15;;;;;8.40;1.00;;;;;;2276186;61;926;-86
2023/10/23 05:49:55;1285528.00;4.29;2245.64;90701.00;0.30;157.52;;;;;8.50;1.00;;;;;;2276197;61;1245;-86
2023/10/23 05:52:25;1329111.00;4.43;2325.48;93995.00;0.31;163.21;;;;;8.70;1.00;;;;;;2276127;61;1581;-87
2023/10/23 05:54:55;1723400.00;5.74;3070.98;81909.00;0.27;142.33;;;;;8.50;1.00;;;;;;2276114;61;1383;-86
2023/10/23 05:57:22;1320285.00;4.40;2309.28;27973.00;0.09;49.07;;;;;8.30;1.00;;;;;;2276191;61;990;-86
2023/10/23 05:59:49;1785427.00;5.95;3192.64;144540.00;0.48;250.40;;;;;8.50;1.00;;;;;;2276103;61;1577;-87
2023/10/23 06:02:19;1592344.00;5.31;2818.12;211226.00;0.70;365.25;;;;;8.50;1.00;;;;;;2276111;61;2012;-87
2023/10/23 06:04:49;1295750.00;4.32;2264.33;152443.00;0.51;264.02;;;;;8.60;1.00;;;;;;2276091;61;1497;-87
2023/10/23 06:07:22;1262139.00;4.21;2202.98;107413.00;0.36;186.37;;;;;8.50;1.00;;;;;;2276163;61;1535;-86
2023/10/23 06:09:51;1655688.00;5.52;2939.65;195391.00;0.65;337.99;;;;;8.20;1.00;;;;;;2275989;61;1524;-87
2023/10/23 06:12:20;1325544.00;4.42;2318.93;84836.00;0.28;147.39;;;;;8.40;1.00;;;;;;2276023;61;1577;-87
2023/10/23 06:14:52;1489647.00;4.97;2623.65;39211.00;0.13;68.52;;;;;8.30;1.00;;;;;;2276115;61;944;-85
2023/10/23 06:17:23;1696988.00;5.66;3019.57;108663.00;0.36;188.52;;;;;8.50;1.00;;;;;;2276071;61;1312;-88
2023/10/23 06:19:50;1072809.00;3.58;1861.86;119689.00;0.40;207.55;;;;;8.40;1.00;;;;;;2276004;61;1477;-86
2023/10/23 06:22:24;1214940.00;4.05;2117.26;118615.00;0.40;205.69;;;;;8.30;1.80;;;;;;2276043;61;2000;-87
2023/10/23 06:24:54;1509218.00;5.03;2660.48;61499.00;0.20;107.07;;;;;8.40;2.20;;;;;;2276004;61;1641;-88
2023/10/23 06:27:23;1984500.00;6.61;3592.55;111590.00;0.37;193.57;;;;;8.50;2.00;;;;;;2275943;61;1706;-88
2023/10/23 06:29:50;1404423.00;4.68;2464.53;114165.00;0.38;198.02;;;;;8.70;1.90;;;;;;2276038;61;1521;-87
2023/10/23 06:32:23;1441533.00;4.81;2533.58;159227.00;0.53;275.71;;;;;8.50;2.00;;;;;;2275963;61;1245;-87
2023/10/23 06:34:57;1332699.00;4.44;2332.07;134689.00;0.45;233.41;;;;;8.50;2.60;;;;;;2276040;61;1258;-87
2023/10/23 06:37:32;1303050.00;4.34;2277.69;170972.00;0.57;295.94;;;;;8.70;2.30;;;;;;2276034;61;1445;-87
2023/10/23 06:39:59;1654590.00;5.52;2937.53;141883.00;0.47;245.82;;;;;8.90;2.40;;;;;;2276598;61;2232;-87
2023/10/23 06:42:29;2336461.00;7.79;4339.63;142174.00;0.47;246.32;;;;;9.00;1.10;;;;;;2276636;61;2008;-86
2023/10/23 06:44:58;1455332.00;4.85;2559.35;160756.00;0.54;278.34;;;;;8.80;1.00;;;;;;2276856;61;930;-88
2023/10/23 06:47:29;613548.00;2.05;1057.62;97890.00;0.33;169.93;;;;;8.90;1.00;;;;;;2276741;61;1453;-89
2023/10/23 06:49:59;485371.00;1.62;836.64;95962.00;0.32;166.60;;;;;8.90;1.00;;;;;;2276797;61;1060;-87
2023/10/23 08:25:06;722052.00;2.41;1245.50;0.00;0.00;0.62;;;;;11.50;1.00;;;;;;2499152;55;3516;31
2023/10/23 09:28:42;1823629.00;6.08;3268.24;19133.00;0.06;33.77;;;;;13.10;1.00;;;;;;2501881;55;3572;31
2023/10/23 12:22:55;588856.00;1.96;1014.98;0.00;0.00;0.62;;;;;18.40;1.00;;;;;;2279045;61;1972;-88
2023/10/23 16:14:58;767056.00;2.56;1323.73;0.00;0.00;0.62;;;;;18.10;1.00;;;;;;2506559;55;3576;31
2023/10/23 17:18:20;926903.00;3.09;1603.42;0.00;0.00;0.62;;;;;18.00;1.00;;;;;;1566086;56;3552;-86
2023/10/23 17:20:47;155042.00;0.52;268.50;0.00;0.00;0.62;;;;;18.10;1.00;;;;;;2276315;61;1412;-89
2023/10/23 17:23:14;138096.00;0.46;239.29;0.00;0.00;0.62;;;;;18.30;1.00;;;;;;2275920;61;1988;-88
2023/10/23 17:25:42;176414.00;0.59;305.31;0.00;0.00;0.62;;;;;18.30;1.00;;;;;;2276244;61;1056;-88
2023/10/23 17:28:09;153469.00;0.51;265.79;0.00;0.00;0.62;;;;;18.30;1.00;;;;;;2276364;61;1002;-88
2023/10/23 17:30:36;237765.00;0.79;410.91;0.00;0.00;0.62;;;;;18.40;1.00;;;;;;2276239;61;1471;-88
2023/10/23 17:33:05;188728.00;0.63;326.52;0.00;0.00;0.62;;;;;18.30;1.00;;;;;;2276122;61;1444;-87
2023/10/23 17:35:38;217780.00;0.73;376.52;0.00;0.00;0.62;;;;;18.10;1.00;;;;;;2276258;61;1679;-88
2023/10/23 17:38:05;28101.00;0.09;49.30;0.00;0.00;0.62;;;;;18.30;1.00;;;;;;2276294;61;1096;-88
2023/10/23 17:40:36;133407.00;0.44;231.20;0.00;0.00;0.62;;;;;18.20;1.00;;;;;;2276223;61;1548;-88
2023/10/23 17:43:04;113528.00;0.38;196.92;13742.00;0.05;24.43;;;;;18.20;1.00;;;;;;2276252;61;2024;-88
2023/10/23 17:45:33;173893.00;0.58;300.97;0.00;0.00;0.62;;;;;18.00;1.00;;;;;;2276282;61;1017;-88
2023/10/23 17:48:00;206073.00;0.69;356.38;0.00;0.00;0.62;;;;;18.00;1.00;;;;;;2276193;61;1391;-86
2023/10/23 17:50:27;263881.00;0.88;455.82;18526.00;0.06;32.72;;;;;18.20;1.00;;;;;;2276134;61;1419;-88
2023/10/23 17:53:00;320046.00;1.07;552.38;0.00;0.00;0.62;;;;;18.30;1.00;;;;;;2275947;61;1609;-87
2023/10/23 17:55:27;468144.00;1.56;807.00;0.00;0.00;0.62;;;;;18.20;1.00;;;;;;2276145;61;1066;-87
2023/10/23 17:57:54;194184.00;0.65;335.91;0.00;0.00;0.62;;;;;18.20;1.00;;;;;;2276189;61;1428;-90
2023/10/23 18:00:22;229686.00;0.77;397.01;0.00;0.00;0.62;;;;;18.30;1.00;;;;;;2276126;61;1055;-88
2023/10/23 18:02:55;77987.00;0.26;135.56;0.00;0.00;0.62;;;;;18.40;1.00;;;;;;2276093;61;2016;-87
2023/10/23 18:05:22;344215.00;1.15;593.92;0.00;0.00;0.62;;;;;18.50;1.00;;;;;;2276137;61;2226;-87
2023/10/23 18:07:52;316826.00;1.06;546.84;104097.00;0.35;180.64;;;;;18.30;1.00;;;;;;2276070;61;1424;-88
2023/10/23 18:10:26;258937.00;0.86;447.32;0.00;0.00;0.62;;;;;18.30;1.00;;;;;;2276083;61;1447;-88
2023/10/23 18:12:57;100961.00;0.34;175.23;0.00;0.00;0.62;;;;;18.20;1.00;;;;;;2275969;61;1656;-88
2023/10/23 18:15:26;87656.00;0.29;152.26;0.00;0.00;0.62;;;;;17.90;1.00;;;;;;2276072;61;1231;-88
2023/10/23 18:17:54;223099.00;0.74;385.68;0.00;0.00;0.62;;;;;17.90;1.00;;;;;;2275907;61;1604;-87
2023/10/23 18:20:22;199414.00;0.66;344.92;0.00;0.00;0.62;;;;;17.70;1.00;;;;;;2275940;61;1703;-88
2023/10/23 18:22:53;100926.00;0.34;175.17;0.00;0.00;0.62;;;;;18.00;1.00;;;;;;2275904;61;1915;-86
2023/10/23 18:25:23;29097.00;0.10;51.02;0.00;0.00;0.62;;;;;18.20;1.00;;;;;;2276204;61;997;-89
2023/10/23 18:27:52;208893.00;0.70;361.23;26239.00;0.09;46.07;;;;;18.20;1.00;;;;;;2276090;61;1487;-88
2023/10/23 18:30:20;216078.00;0.72;373.59;0.00;0.00;0.62;;;;;18.30;1.00;;;;;;2276138;61;1041;-85
2023/10/23 18:32:50;99865.00;0.33;173.34;0.00;0.00;0.62;;;;;18.60;1.00;;;;;;2275938;61;1332;-88
2023/10/23 18:35:17;361604.00;1.21;623.81;0.00;0.00;0.62;;;;;18.60;1.00;;;;;;2276382;61;1609;-87
2023/10/23 19:41:14;707452.00;2.36;1220.16;0.00;0.00;0.62;;;;;17.60;1.00;;;;;;832426;40;3518;-88
2023/10/23 19:46:35;333619.00;1.11;575.71;0.00;0.00;0.62;;;;;17.70;1.00;;;;;;1345060;41;3227;-88
2023/10/23 19:49:22;383758.00;1.28;661.88;0.00;0.00;0.62;;;;;17.90;1.00;;;;;;2276278;61;1619;-88
2023/10/23 19:51:57;75265.00;0.25;130.86;0.00;0.00;0.62;;;;;18.00;1.00;;;;;;2276122;61;1594;-87
2023/10/23 19:54:39;430145.00;1.43;741.63;22133.00;0.07;38.96;;;;;17.80;1.00;;;;;;2276148;61;1553;-87
2023/10/23 19:57:28;246906.00;0.82;426.63;0.00;0.00;0.62;;;;;17.90;1.00;;;;;;2276104;61;1515;-87
2023/10/23 20:00:19;455335.00;1.52;784.96;84570.00;0.28;146.93;;;;;18.10;1.00;;;;;;2276206;61;1612;-88
2023/10/23 20:05:25;1314105.00;4.38;2297.94;0.00;0.00;0.62;;;;;17.90;1.00;;;;;;2277655;61;1902;-89
2023/10/23 20:08:03;490799.00;1.64;845.98;0.00;0.00;0.62;;;;;17.40;1.00;;;;;;2276150;61;1643;-87
2023/10/23 20:10:42;131127.00;0.44;227.27;0.00;0.00;0.62;;;;;17.30;1.00;;;;;;2276084;61;1812;-87
2023/10/23 20:15:50;423630.00;1.41;730.43;0.00;0.00;0.62;;;;;17.40;1.00;;;;;;2277869;61;1426;-86
2023/10/23 20:21:14;34300.00;0.11;60.03;0.00;0.00;0.62;;;;;17.90;1.00;;;;;;2275722;61;1215;-86
2023/10/23 20:23:43;193415.00;0.64;334.59;0.00;0.00;0.62;;;;;17.90;1.00;;;;;;2276127;61;2013;-87
2023/10/23 20:26:23;294310.00;0.98;508.14;0.00;0.00;0.62;;;;;18.00;1.00;;;;;;2276037;61;2253;-87
2023/10/23 20:29:05;194078.00;0.65;335.73;0.00;0.00;0.62;;;;;17.90;1.00;;;;;;2291831;55;3739;-88
2023/10/23 20:31:37;578989.00;1.93;997.95;0.00;0.00;0.62;;;;;17.70;1.00;;;;;;2276074;61;1447;-87
2023/10/23 20:34:12;165942.00;0.55;287.28;0.00;0.00;0.62;;;;;17.80;1.00;;;;;;2276191;61;1721;-86
2023/10/23 20:36:46;152562.00;0.51;264.22;0.00;0.00;0.62;;;;;18.10;1.00;;;;;;2276146;61;1002;-86
2023/10/23 20:39:19;253223.00;0.84;437.49;84285.00;0.28;146.44;;;;;18.20;1.00;;;;;;2276015;61;1613;-87
2023/10/23 20:41:50;579528.00;1.93;998.88;99544.00;0.33;172.78;;;;;18.00;1.00;;;;;;2275975;61;1521;-88
2023/10/23 20:44:21;521286.00;1.74;898.48;65955.00;0.22;114.77;;;;;18.10;1.00;;;;;;2276126;61;1909;-88
2023/10/23 20:46:55;399153.00;1.33;688.35;76504.00;0.26;133.00;;;;;18.20;1.00;;;;;;2276155;61;1430;-86
2023/10/23 20:49:30;464779.00;1.55;801.21;85810.00;0.29;149.07;;;;;17.80;1.00;;;;;;2276102;61;1524;-87
2023/10/23 20:52:08;628041.00;2.09;1082.66;81380.00;0.27;141.42;;;;;18.00;1.00;;;;;;2275892;61;1542;-87
2023/10/23 20:54:41;477562.00;1.59;823.20;0.00;0.00;0.62;;;;;18.10;1.00;;;;;;2276041;61;1636;-88
2023/10/23 20:57:08;358192.00;1.19;617.94;15788.00;0.05;27.98;;;;;18.00;1.00;;;;;;2276029;61;1557;-88
2023/10/23 20:59:39;374128.00;1.25;645.33;0.00;0.00;0.62;;;;;17.70;1.00;;;;;;2276073;61;1022;-86
2023/10/23 21:02:15;647568.00;2.16;1116.43;21842.00;0.07;38.46;;;;;17.60;1.00;;;;;;2276002;61;1568;-86
2023/10/23 21:04:51;140387.00;0.47;243.24;0.00;0.00;0.62;;;;;17.60;1.00;;;;;;2276070;61;1998;-87
2023/10/23 21:07:19;168423.00;0.56;291.55;0.00;0.00;0.62;;;;;17.90;1.00;;;;;;2275990;61;1560;-85
2023/10/23 21:09:46;236287.00;0.79;408.36;0.00;0.00;0.62;;;;;18.20;1.00;;;;;;2276098;61;1462;-87
2023/10/23 21:12:22;211153.00;0.70;365.12;0.00;0.00;0.62;;;;;18.30;1.00;;;;;;2276026;61;1351;-87
2023/10/23 21:14:49;173045.00;0.58;299.51;0.00;0.00;0.62;;;;;18.30;1.00;;;;;;2275952;61;1511;-86
2023/10/23 21:17:19;211057.00;0.70;364.95;0.00;0.00;0.62;;;;;18.30;1.00;;;;;;2276022;61;1113;-86
2023/10/23 21:19:47;204764.00;0.68;354.12;0.00;0.00;0.62;;;;;18.00;1.00;;;;;;2275940;61;1462;-86
2023/10/23 21:22:16;235232.00;0.78;406.55;0.00;0.00;0.62;;;;;18.10;1.00;;;;;;2275990;61;1585;-85
2023/10/23 21:24:52;33959.00;0.11;59.44;0.00;0.00;0.62;;;;;18.10;1.00;;;;;;2275916;61;1909;-85
2023/10/23 21:27:29;347566.00;1.16;599.68;0.00;0.00;0.62;;;;;18.30;1.00;;;;;;2275969;61;1480;-86
2023/10/23 21:29:58;141537.00;0.47;245.22;0.00;0.00;0.62;;;;;18.40;1.00;;;;;;2275953;61;1395;-87
2023/10/23 21:32:25;118851.00;0.40;206.10;0.00;0.00;0.62;;;;;18.50;1.00;;;;;;2275849;61;1427;-87
2023/10/23 21:34:57;54258.00;0.18;94.55;0.00;0.00;0.62;;;;;18.70;1.00;;;;;;2276041;61;1130;-86